Time;durP1;ratioP1;P1;durP2;ratioP2;P2;SDS_P1;SDS_P2;PMS_P1;PMS_P2;Temp;Humidity;BMP_temperature;BMP_pressure;BME280_temperature;BME280_humidity;BME280_pressure;Samples;Min_cycle;Max_cycle;Signal;HPM_P1;HPM_P2
2021/03/26 00:01:51;;;;;;;26.33;18.60;;;10.00;85.20;;;;;;6141933;23;20526;-88
2021/03/26 00:05:02;;;;;;;25.90;17.55;;;7.60;87.50;;;;;;6123516;23;20157;-88
2021/03/26 00:07:49;;;;;;;26.08;19.98;;;9.90;90.10;;;;;;6029413;23;20151;-88
2021/03/26 00:15:08;;;;;;;;;;;;;;;;;;;;;
2021/03/26 00:21:16;;;;;;;35.90;21.58;;;7.40;90.20;;;;;;5947683;24;20449;-88
2021/03/26 00:23:45;;;;;;;43.75;20.73;;;8.20;92.20;;;;;;5985881;23;20160;-91
2021/03/26 00:26:13;;;;;;;33.25;22.02;;;7.30;92.40;;;;;;6095172;23;20151;-88
2021/03/26 00:28:49;;;;;;;28.85;21.13;;;7.30;96.30;;;;;;6095297;23;20146;-87
2021/03/26 00:31:26;;;;;;;29.50;20.52;;;7.30;94.00;;;;;;6070961;23;20190;-88
2021/03/26 00:33:51;;;;;;;34.88;20.65;;;7.30;91.60;;;;;;6094106;23;20131;-88
2021/03/26 00:36:24;;;;;;;32.37;20.20;;;7.30;93.30;;;;;;6041971;23;20163;-87
2021/03/26 00:38:52;;;;;;;32.75;20.85;;;7.30;91.70;;;;;;6038219;23;20175;-87
2021/03/26 00:41:21;;;;;;;28.17;20.73;;;7.40;93.50;;;;;;6085199;23;20150;-88
2021/03/26 00:44:07;;;;;;;30.50;20.00;;;7.30;93.30;;;;;;6094607;23;20180;-87
2021/03/26 00:46:41;;;;;;;25.67;20.40;;;7.30;93.40;;;;;;6095063;23;20353;-88
2021/03/26 00:49:07;;;;;;;26.75;20.40;;;7.20;93.50;;;;;;6094534;23;20429;-89
2021/03/26 00:51:37;;;;;;;32.47;21.00;;;7.30;93.80;;;;;;6095356;23;20139;-88
2021/03/26 00:54:05;;;;;;;29.98;21.08;;;7.30;92.60;;;;;;6094381;23;20405;-88
2021/03/26 00:56:37;;;;;;;30.33;20.70;;;7.20;94.20;;;;;;6094834;23;20146;-87
2021/03/26 00:59:06;;;;;;;28.83;20.83;;;7.30;94.10;;;;;;6093813;23;20174;-88
2021/03/26 01:01:32;;;;;;;38.30;21.67;;;7.30;94.10;;;;;;6095470;23;20134;-88
2021/03/26 01:03:58;;;;;;;31.08;20.90;;;7.20;94.30;;;;;;6095302;23;20394;-87
2021/03/26 01:06:26;;;;;;;31.10;20.67;;;7.10;99.90;;;;;;6095796;23;20192;-88
2021/03/26 01:08:56;;;;;;;37.53;20.95;;;;;;;;;;6094061;23;20143;-87
2021/03/26 01:11:29;;;;;;;36.27;21.43;;;7.10;91.60;;;;;;6221694;23;20146;-88
2021/03/26 01:13:56;;;;;;;30.80;22.00;;;6.10;91.40;;;;;;6120142;23;20374;-87
2021/03/26 01:16:26;;;;;;;33.33;20.67;;;7.10;93.30;;;;;;6119594;23;20397;-87
2021/03/26 01:18:53;;;;;;;29.08;19.70;;;7.00;92.60;;;;;;6221327;23;20429;-87
2021/03/26 01:21:25;;;;;;;29.60;20.70;;;7.10;93.00;;;;;;6094436;23;20197;-88
2021/03/26 01:23:51;;;;;;;34.50;24.00;;;7.00;92.80;;;;;;6093711;23;20398;-88
2021/03/26 01:26:17;;;;;;;29.60;20.50;;;6.90;92.70;;;;;;6092569;23;20421;-87
2021/03/26 01:28:47;;;;;;;30.10;22.00;;;6.90;92.60;;;;;;6169450;23;20421;-88
2021/03/26 01:31:13;;;;;;;34.22;22.60;;;7.00;92.70;;;;;;6093519;23;20405;-88
2021/03/26 01:33:40;;;;;;;41.50;23.97;;;6.90;93.00;;;;;;6092790;23;20134;-88
2021/03/26 01:36:08;;;;;;;34.55;24.58;;;6.80;93.60;;;;;;6118611;23;20501;-88
2021/03/26 01:38:44;;;;;;;27.95;20.92;;;6.90;92.30;;;;;;6117879;23;20172;-88
2021/03/26 01:41:35;;;;;;;32.75;21.67;;;6.80;93.90;;;;;;6118258;23;20190;-88
2021/03/26 01:44:01;;;;;;;33.10;22.52;;;6.90;92.80;;;;;;6105312;23;20192;-88
2021/03/26 01:46:29;;;;;;;32.20;22.90;;;6.90;94.10;;;;;;6119604;23;20142;-88
2021/03/26 01:49:01;;;;;;;31.75;22.83;;;6.90;94.10;;;;;;6094322;23;20150;-88
2021/03/26 01:51:42;;;;;;;25.63;19.00;;;6.90;94.00;;;;;;6119002;23;20122;-88
2021/03/26 01:54:11;;;;;;;34.80;20.93;;;7.00;92.30;;;;;;6094212;23;20141;-88
2021/03/26 01:56:37;;;;;;;32.75;23.60;;;7.00;93.90;;;;;;6093546;23;20489;-88
2021/03/26 01:59:04;;;;;;;35.13;22.40;;;9.30;95.60;;;;;;6093112;23;20189;-87
2021/03/26 02:01:43;;;;;;;31.02;21.48;;;7.10;93.70;;;;;;6093588;23;20203;-87
2021/03/26 02:04:21;;;;;;;32.95;20.67;;;7.00;92.20;;;;;;6118549;23;20134;-87
2021/03/26 02:06:50;;;;;;;28.70;20.93;;;7.00;93.70;;;;;;6118717;23;20134;-88
2021/03/26 02:09:40;;;;;;;29.08;20.98;;;7.00;93.80;;;;;;6119222;23;20432;-88
2021/03/26 02:12:40;;;;;;;35.08;22.17;;;7.00;92.30;;;;;;6118583;23;20562;-87
2021/03/26 02:15:21;;;;;;;30.00;21.63;;;7.00;92.40;;;;;;6128963;23;20193;-89
2021/03/26 02:17:50;;;;;;;34.95;23.33;;;6.90;92.50;;;;;;6119649;23;20181;-88
2021/03/26 02:20:40;;;;;;;32.70;20.83;;;7.00;93.80;;;;;;6094547;23;20205;-88
2021/03/26 02:23:16;;;;;;;31.90;22.40;;;6.90;94.10;;;;;;6095235;23;20149;-91
2021/03/26 02:25:43;;;;;;;35.00;24.00;;;6.90;94.20;;;;;;6120446;23;20142;-89
2021/03/26 02:28:10;;;;;;;32.70;22.63;;;6.80;94.40;;;;;;6096261;23;20438;-88
2021/03/26 02:30:43;;;;;;;29.73;22.15;;;6.80;94.50;;;;;;6119778;23;20145;-88
2021/03/26 02:33:14;;;;;;;34.88;23.35;;;6.80;94.70;;;;;;6094747;23;20539;-88
2021/03/26 02:36:11;;;;;;;37.47;22.75;;;6.70;95.00;;;;;;6119303;23;20134;-88
2021/03/26 02:38:42;;;;;;;35.85;23.17;;;6.70;95.20;;;;;;6094503;23;20249;-88
2021/03/26 02:41:26;;;;;;;33.93;23.30;;;6.60;95.30;;;;;;6093914;23;20143;-88
2021/03/26 02:44:19;;;;;;;40.88;25.20;;;6.60;77.50;;;;;;6119227;23;20359;-88
2021/03/26 02:47:01;;;;;;;35.05;25.60;;;7.20;83.80;;;;;;6220971;23;20158;-88
2021/03/26 02:49:44;;;;;;;45.17;25.67;;;7.60;84.60;;;;;;6119310;23;20152;-87
2021/03/26 03:02:36;;;;;;;42.92;25.58;;;6.60;86.10;;;;;;6110555;22;20201;-87
2021/03/26 03:05:22;;;;;;;42.75;23.42;;;6.50;87.70;;;;;;6118853;23;20197;-88
2021/03/26 03:08:10;;;;;;;37.78;25.45;;;6.50;88.70;;;;;;6119280;23;20137;-88
2021/03/26 03:11:12;;;;;;;41.78;26.50;;;6.50;89.20;;;;;;6094213;23;20158;-89
2021/03/26 03:13:56;;;;;;;32.77;23.00;;;9.00;90.10;;;;;;6098232;23;20241;-88
2021/03/26 03:16:33;;;;;;;40.92;23.30;;;6.40;90.30;;;;;;6095125;23;20405;-88
2021/03/26 03:19:16;;;;;;;37.70;25.17;;;6.40;90.50;;;;;;6120050;23;20211;-87
2021/03/26 03:21:48;;;;;;;35.38;24.70;;;6.40;90.40;;;;;;6094585;23;20386;-87
2021/03/26 03:24:35;;;;;;;35.90;23.80;;;6.30;93.80;;;;;;6120054;23;20138;-88
2021/03/26 03:27:20;;;;;;;40.75;24.95;;;6.40;94.50;;;;;;6126394;23;20168;-88
2021/03/26 03:30:04;;;;;;;36.63;23.75;;;6.20;97.40;;;;;;6223575;23;20142;-88
2021/03/26 03:32:37;;;;;;;41.65;24.48;;;;;;;;;;6095116;23;20161;-87
2021/03/26 03:35:21;;;;;;;38.53;23.60;;;6.70;99.80;;;;;;6221712;23;20151;-87
2021/03/26 03:38:05;;;;;;;39.35;25.02;;;6.20;95.00;;;;;;6094359;23;20166;-87
2021/03/26 03:40:44;;;;;;;41.17;26.23;;;6.20;97.30;;;;;;6221811;23;20177;-88
2021/03/26 03:43:12;;;;;;;44.20;27.10;;;;;;;;;;6095398;23;20138;-87
2021/03/26 03:46:03;;;;;;;46.88;30.70;;;6.20;97.40;;;;;;6222568;23;20245;-88
2021/03/26 03:48:57;;;;;;;41.37;26.80;;;6.10;94.50;;;;;;6093172;23;20160;-89
2021/03/26 03:51:32;;;;;;;43.00;26.85;;;6.10;96.90;;;;;;6093959;23;20379;-88
2021/03/26 03:54:04;;;;;;;45.53;26.45;;;6.10;97.20;;;;;;6094022;23;20142;-89
2021/03/26 03:56:40;;;;;;;49.60;28.52;;;;;;;;;;6195837;23;20138;-88
2021/03/26 03:59:14;;;;;;;52.97;30.92;;;5.90;99.90;;;;;;6221036;23;20187;-87
2021/03/26 04:06:09;;;;;;;48.15;26.95;;;5.90;91.40;;;;;;6094449;23;20190;-87
2021/03/26 04:08:47;;;;;;;45.72;28.05;;;6.00;92.20;;;;;;6066244;23;20159;-87
2021/03/26 04:11:22;;;;;;;45.65;28.27;;;6.10;93.20;;;;;;6170907;23;20207;-86
2021/03/26 04:13:59;;;;;;;44.72;26.77;;;6.10;93.10;;;;;;6218266;23;20206;-88
2021/03/26 04:16:29;;;;;;;45.25;27.65;;;6.10;92.60;;;;;;6191249;23;20186;-87
2021/03/26 04:19:23;;;;;;;54.72;28.27;;;5.90;92.50;;;;;;6243268;23;20168;-88
2021/03/26 04:21:58;;;;;;;47.20;27.83;;;6.00;93.00;;;;;;6217526;23;20219;-88
2021/03/26 04:25:08;;;;;;;45.70;28.70;;;5.90;92.80;;;;;;6242804;23;20128;-88
2021/03/26 04:27:40;;;;;;;55.72;28.27;;;6.00;91.10;;;;;;6215554;23;20186;-87
2021/03/26 04:30:21;;;;;;;50.13;28.38;;;8.60;93.10;;;;;;6243103;23;20131;-88
2021/03/26 04:32:50;;;;;;;47.95;29.65;;;6.00;91.20;;;;;;6216340;23;20144;-88
2021/03/26 04:35:18;;;;;;;47.50;29.17;;;6.00;92.30;;;;;;6243696;23;20124;-87
2021/03/26 04:38:29;;;;;;;46.05;28.38;;;6.10;91.60;;;;;;6244007;23;20167;-88
2021/03/26 04:41:04;;;;;;;57.75;29.67;;;6.00;90.40;;;;;;6242793;23;20191;-87
2021/03/26 04:43:33;;;;;;;45.25;30.08;;;6.00;92.10;;;;;;6242600;23;20111;-87
2021/03/26 04:46:05;;;;;;;47.17;29.17;;;6.00;91.50;;;;;;6216366;23;20175;-86
2021/03/26 04:48:39;;;;;;;49.60;30.95;;;4.80;91.00;;;;;;6216089;23;20182;-87
2021/03/26 04:51:12;;;;;;;53.72;30.02;;;7.00;91.00;;;;;;6240098;23;20128;-88
2021/03/26 04:53:44;;;;;;;58.92;31.90;;;5.90;91.80;;;;;;6214184;23;20230;-87
2021/03/26 04:56:15;;;;;;;66.55;35.72;;;5.90;92.00;;;;;;6212658;23;20223;-88
2021/03/26 04:58:49;;;;;;;57.65;34.88;;;6.00;92.50;;;;;;6213294;23;20175;-87
2021/03/26 05:01:20;;;;;;;51.30;32.40;;;6.10;92.50;;;;;;6237789;23;20506;-88
2021/03/26 05:03:53;;;;;;;46.63;30.13;;;6.20;93.10;;;;;;6236536;23;20176;-87
2021/03/26 05:06:23;;;;;;;58.33;34.70;;;6.20;92.40;;;;;;6189160;23;20146;-87
2021/03/26 05:09:01;;;;;;;60.35;37.67;;;6.50;92.50;;;;;;6239260;23;20147;-87
2021/03/26 05:11:32;;;;;;;47.20;31.48;;;6.40;92.50;;;;;;6213276;23;20576;-87
2021/03/26 05:14:21;;;;;;;66.20;35.35;;;6.70;92.80;;;;;;6213695;23;20135;-87
2021/03/26 05:16:54;;;;;;;47.63;29.55;;;6.80;91.90;;;;;;6212071;23;20152;-87
2021/03/26 05:19:32;;;;;;;52.97;34.92;;;7.30;91.70;;;;;;6239800;23;20175;-87
2021/03/26 05:22:29;;;;;;;47.38;31.95;;;7.10;91.90;;;;;;6239471;23;20131;-87
2021/03/26 05:25:01;;;;;;;48.47;30.77;;;7.10;92.50;;;;;;6236660;23;20140;-87
2021/03/26 05:27:28;;;;;;;51.58;33.95;;;8.60;91.30;;;;;;6211788;23;20150;-88
2021/03/26 05:29:54;;;;;;;51.45;34.58;;;7.30;91.40;;;;;;6238213;23;20150;-87
2021/03/26 05:32:44;;;;;;;42.37;28.60;;;7.30;91.50;;;;;;6209863;23;20164;-88
2021/03/26 05:35:23;;;;;;;52.60;32.80;;;7.50;90.10;;;;;;6209675;23;20155;-86
2021/03/26 05:38:11;;;;;;;49.53;29.83;;;7.60;91.10;;;;;;6211675;23;20235;-87
2021/03/26 05:40:51;;;;;;;46.67;31.10;;;5.70;86.80;;;;;;6214065;23;20152;-87
2021/03/26 05:43:54;;;;;;;49.85;31.00;;;8.10;89.50;;;;;;6214596;23;20397;-87
2021/03/26 05:46:49;;;;;;;49.70;33.60;;;7.80;87.90;;;;;;6239693;23;20148;-88
2021/03/26 05:49:52;;;;;;;51.65;33.35;;;7.80;90.20;;;;;;6209329;23;20383;-88
2021/03/26 05:52:27;;;;;;;41.00;28.70;;;7.80;88.00;;;;;;6212687;23;20143;-88
2021/03/26 05:55:05;;;;;;;43.08;29.70;;;10.00;88.30;;;;;;6214077;23;20147;-86
2021/03/26 05:57:52;;;;;;;42.70;26.90;;;9.80;88.60;;;;;;6212836;23;20171;-87
2021/03/26 06:00:34;;;;;;;36.13;26.02;;;8.70;89.10;;;;;;6207433;23;20697;-87
2021/03/26 06:03:30;;;;;;;48.92;30.65;;;8.20;87.80;;;;;;6205653;23;20229;-88
2021/03/26 06:06:49;;;;;;;40.60;26.67;;;8.30;85.50;;;;;;6209446;23;20162;-87
2021/03/26 06:09:32;;;;;;;38.80;29.80;;;10.90;86.60;;;;;;6213323;23;20151;-86
2021/03/26 06:12:36;;;;;;;44.10;27.30;;;10.10;83.90;;;;;;6211302;23;20382;-87
2021/03/26 06:15:32;;;;;;;41.77;26.97;;;7.10;82.30;;;;;;6211030;23;20146;-87
2021/03/26 06:18:41;;;;;;;43.35;24.17;;;9.30;84.20;;;;;;6208707;23;20450;-88
2021/03/26 06:21:17;;;;;;;36.13;24.37;;;9.20;80.80;;;;;;6236261;23;20169;-88
2021/03/26 06:24:20;;;;;;;36.07;23.30;;;9.30;81.80;;;;;;6231726;23;20451;-89
2021/03/26 06:27:16;;;;;;;49.30;27.40;;;10.00;75.90;;;;;;6206458;23;20414;-87
2021/03/26 06:30:05;;;;;;;33.90;24.97;;;11.20;75.20;;;;;;6212830;23;20375;-86
2021/03/26 06:33:11;;;;;;;36.90;24.00;;;10.70;72.50;;;;;;6239279;23;20426;-87
2021/03/26 06:36:10;;;;;;;33.33;23.37;;;12.70;74.20;;;;;;6210370;23;20374;-87
2021/03/26 06:39:12;;;;;;;32.73;23.87;;;;;;;;;;6235521;23;20473;-87
2021/03/26 06:42:04;;;;;;;32.00;23.50;;;11.30;88.30;;;;;;6214239;23;20381;-85
2021/03/26 06:44:53;;;;;;;31.53;24.30;;;11.50;78.50;;;;;;6239957;23;20434;-87
2021/03/26 06:47:33;;;;;;;34.13;23.93;;;11.80;79.00;;;;;;6209702;23;20418;-85
2021/03/26 06:52:52;;;;;;;37.53;26.00;;;12.40;79.70;;;;;;6208847;23;20430;-86
2021/03/26 06:55:58;;;;;;;31.80;23.43;;;12.10;77.00;;;;;;6180270;23;20384;-89
2021/03/26 06:59:00;;;;;;;33.40;25.63;;;12.90;71.40;;;;;;6088063;23;20439;-86
2021/03/26 07:01:45;;;;;;;34.97;24.60;;;;;;;;;;6085507;23;20356;-86
2021/03/26 07:04:30;;;;;;;33.83;27.10;;;12.70;90.80;;;;;;6062349;23;20383;-86
2021/03/26 07:09:45;;;;;;;31.47;24.23;;;13.60;75.70;;;;;;6197924;22;20440;-87
2021/03/26 07:12:18;;;;;;;31.33;27.10;;;14.10;62.10;;;;;;6239222;23;20375;-86
2021/03/26 07:14:57;;;;;;;28.83;23.77;;;13.80;61.60;;;;;;6239051;23;20847;-85
2021/03/26 07:17:47;;;;;;;36.57;26.57;;;15.20;62.10;;;;;;6237845;23;20382;-87
2021/03/26 07:20:48;;;;;;;29.97;24.37;;;14.10;60.40;;;;;;6211354;23;20414;-86
2021/03/26 07:23:40;;;;;;;31.93;25.70;;;14.70;62.80;;;;;;6237274;23;20358;-88
2021/03/26 07:26:48;;;;;;;29.27;24.60;;;14.10;62.30;;;;;;6209815;23;20505;-87
2021/03/26 07:29:29;;;;;;;29.30;24.40;;;14.90;49.90;;;;;;6237384;23;20375;-87
2021/03/26 07:32:28;;;;;;;26.53;23.73;;;16.60;51.40;;;;;;6210934;23;20437;-89
2021/03/26 07:35:03;;;;;;;30.03;26.30;;;16.40;48.90;;;;;;6210435;23;20374;-89
2021/03/26 07:37:56;;;;;;;26.17;22.37;;;15.10;48.60;;;;;;6235284;23;20346;-89
2021/03/26 07:41:11;;;;;;;27.77;22.77;;;17.80;49.60;;;;;;6236926;23;20678;-87
2021/03/26 07:44:21;;;;;;;28.27;23.67;;;18.50;49.00;;;;;;6177082;23;20380;-88
2021/03/26 07:46:56;;;;;;;24.80;21.80;;;19.80;50.40;;;;;;6146759;23;20404;-88
2021/03/26 07:50:01;;;;;;;30.67;24.17;;;19.40;49.60;;;;;;6187464;23;20370;-88
2021/03/26 07:52:47;;;;;;;27.50;23.60;;;19.00;49.40;;;;;;6239926;23;20374;-85
2021/03/26 07:55:45;;;;;;;30.20;20.20;;;15.80;46.10;;;;;;6238539;23;20366;-87
2021/03/26 07:58:38;;;;;;;28.13;23.50;;;15.50;45.50;;;;;;6171759;23;20459;-87
2021/03/26 08:01:22;;;;;;;28.90;22.60;;;19.20;48.40;;;;;;6141820;23;20378;-87
2021/03/26 08:04:25;;;;;;;27.50;22.83;;;17.20;47.70;;;;;;6270884;22;20389;-87
2021/03/26 08:07:37;;;;;;;31.47;23.50;;;19.20;48.90;;;;;;6267761;22;20404;-86
2021/03/26 08:10:22;;;;;;;28.83;22.73;;;17.60;48.50;;;;;;6135361;23;20397;-86
2021/03/26 08:13:21;;;;;;;31.77;26.67;;;16.30;48.90;;;;;;6263357;22;20393;-86
2021/03/26 08:16:15;;;;;;;30.47;22.90;;;17.30;49.70;;;;;;6263856;22;20390;-88
2021/03/26 08:19:16;;;;;;;26.90;22.10;;;16.20;50.10;;;;;;6263877;22;20441;-87
2021/03/26 08:21:54;;;;;;;31.23;22.70;;;18.30;49.70;;;;;;6265447;22;20393;-86
2021/03/26 08:24:57;;;;;;;25.47;21.37;;;19.00;50.80;;;;;;6263307;22;20389;-88
2021/03/26 08:27:33;;;;;;;27.20;22.93;;;;;;;;;;6265401;22;20541;-86
2021/03/26 08:30:31;;;;;;;30.70;24.70;;;17.70;45.10;;;;;;6265873;22;20915;-87
2021/03/26 08:33:45;;;;;;;27.03;23.70;;;19.50;45.30;;;;;;6138133;23;20362;-87
2021/03/26 08:36:42;;;;;;;25.50;22.43;;;18.30;43.80;;;;;;6267356;22;20400;-88
2021/03/26 08:39:36;;;;;;;25.40;22.37;;;18.70;44.10;;;;;;6271657;22;20455;-87
2021/03/26 08:42:19;;;;;;;25.77;21.37;;;18.80;43.30;;;;;;6268805;22;20460;-88
2021/03/26 08:44:56;;;;;;;26.00;23.30;;;18.60;42.50;;;;;;6242811;23;20453;-88
2021/03/26 08:47:37;;;;;;;23.83;21.30;;;20.20;44.60;;;;;;6266927;22;20431;-87
2021/03/26 08:50:20;;;;;;;23.13;20.70;;;19.10;43.50;;;;;;6243924;23;20385;-88
2021/03/26 08:53:07;;;;;;;24.57;22.10;;;19.20;42.60;;;;;;6141320;23;20370;-89
2021/03/26 08:55:41;;;;;;;25.37;22.80;;;;;;;;;;6266152;22;20400;-89
2021/03/26 08:58:15;;;;;;;24.17;21.67;;;19.30;40.10;;;;;;6142440;23;20469;-88
2021/03/26 09:01:03;;;;;;;21.17;18.97;;;17.80;40.70;;;;;;6267791;22;20400;-90
2021/03/26 09:03:59;;;;;;;23.10;19.53;;;19.50;39.40;;;;;;6233784;23;20480;-90
2021/03/26 09:07:06;;;;;;;;;;;;;;;;;;;;;
2021/03/26 09:10:02;;;;;;;20.93;18.60;;;18.90;40.10;;;;;;6133823;22;20409;-90
2021/03/26 09:13:13;;;;;;;21.93;18.63;;;18.80;39.60;;;;;;6234964;23;20419;-89
2021/03/26 09:15:53;;;;;;;23.20;15.57;;;19.10;40.60;;;;;;6133085;23;20358;-88
2021/03/26 09:18:36;;;;;;;24.73;20.23;;;19.40;41.40;;;;;;6264631;22;20441;-91
2021/03/26 09:21:23;;;;;;;24.63;19.70;;;18.80;40.20;;;;;;6236914;23;20381;-89
2021/03/26 09:23:52;;;;;;;24.33;18.80;;;18.80;40.70;;;;;;6131268;23;20361;-88
2021/03/26 09:26:39;;;;;;;24.07;18.90;;;20.10;41.10;;;;;;6241993;23;20385;-91
2021/03/26 09:29:34;;;;;;;20.30;16.90;;;20.00;38.30;;;;;;6242150;23;20409;-90
2021/03/26 09:32:12;;;;;;;20.30;17.90;;;19.80;38.30;;;;;;6243518;23;20377;-88
2021/03/26 09:35:01;;;;;;;19.30;17.07;;;19.80;39.50;;;;;;6143109;22;20393;-90
2021/03/26 09:37:51;;;;;;;22.53;17.37;;;20.20;38.10;;;;;;6240350;22;20397;-89
2021/03/26 09:40:46;;;;;;;21.60;18.53;;;19.90;37.30;;;;;;6242390;23;20476;-91
2021/03/26 09:43:30;;;;;;;20.17;18.03;;;20.30;39.40;;;;;;6269041;22;20469;-88
2021/03/26 09:46:08;;;;;;;17.63;15.80;;;22.30;38.80;;;;;;6267945;22;20386;-91
2021/03/26 09:49:05;;;;;;;18.27;16.47;;;19.10;34.70;;;;;;6242705;23;20392;-91
2021/03/26 09:51:59;;;;;;;15.43;13.93;;;20.70;35.10;;;;;;6266854;22;20411;-89
2021/03/26 09:54:51;;;;;;;14.70;13.00;;;20.50;34.80;;;;;;6128570;22;20389;-90
2021/03/26 09:57:48;;;;;;;14.20;12.90;;;20.70;33.90;;;;;;6145119;22;20416;-86
2021/03/26 10:00:56;;;;;;;13.63;12.27;;;22.30;34.60;;;;;;6246098;23;20413;-88
2021/03/26 10:04:02;;;;;;;11.50;10.50;;;23.80;34.60;;;;;;6144695;23;20507;-87
2021/03/26 10:06:56;;;;;;;12.50;11.30;;;19.20;31.00;;;;;;6272118;22;20849;-88
2021/03/26 10:10:01;;;;;;;12.37;11.17;;;20.00;33.60;;;;;;6272146;22;20378;-89
2021/03/26 10:12:41;;;;;;;11.87;10.63;;;21.90;35.10;;;;;;6140280;23;20381;-88
2021/03/26 10:15:21;;;;;;;12.40;11.30;;;23.40;36.40;;;;;;6262755;22;20400;-87
2021/03/26 10:17:53;;;;;;;17.37;12.40;;;21.40;34.20;;;;;;6265414;22;20515;-86
2021/03/26 10:20:43;;;;;;;11.10;9.00;;;21.00;32.10;;;;;;6236323;23;20390;-89
2021/03/26 10:23:24;;;;;;;11.43;10.30;;;20.90;32.10;;;;;;6134723;23;20864;-89
2021/03/26 10:25:59;;;;;;;10.93;9.83;;;20.90;31.70;;;;;;6233914;23;20468;-89
2021/03/26 10:28:33;;;;;;;15.37;11.60;;;19.10;37.90;;;;;;6138140;23;20364;-89
2021/03/26 10:31:31;;;;;;;10.40;9.60;;;;;;;;;;6139509;23;20361;-87
2021/03/26 10:34:28;;;;;;;11.77;10.30;;;18.80;34.50;;;;;;6246945;22;20449;-88
2021/03/26 10:37:19;;;;;;;12.00;10.90;;;19.40;34.90;;;;;;6268983;22;20504;-86
2021/03/26 10:39:52;;;;;;;13.43;10.00;;;20.40;33.90;;;;;;6151254;22;20496;-88
2021/03/26 10:43:04;;;;;;;10.23;9.23;;;21.80;37.60;;;;;;6161326;22;20456;-89
2021/03/26 10:46:10;;;;;;;12.23;11.10;;;20.10;32.90;;;;;;6154949;23;20433;-90
2021/03/26 10:49:02;;;;;;;12.97;11.00;;;20.50;32.40;;;;;;6139791;23;20382;-87
2021/03/26 10:51:41;;;;;;;13.23;12.03;;;21.00;32.00;;;;;;6135000;23;20397;-88
2021/03/26 10:54:21;;;;;;;12.97;11.70;;;22.30;40.40;;;;;;6130466;23;20389;-86
2021/03/26 10:57:12;;;;;;;11.83;10.63;;;21.40;40.60;;;;;;6137902;23;20354;-88
2021/03/26 10:59:54;;;;;;;12.47;11.27;;;20.30;39.40;;;;;;6124579;23;20709;-87
2021/03/26 11:02:31;;;;;;;12.83;11.70;;;20.80;41.10;;;;;;6142614;23;20411;-88
2021/03/26 11:05:23;;;;;;;11.60;10.50;;;21.40;41.70;;;;;;6140556;23;20423;-87
2021/03/26 11:07:59;;;;;;;12.67;11.20;;;;;;;;;;6142165;23;20495;-87
2021/03/26 11:10:40;;;;;;;13.40;11.53;;;22.20;32.20;;;;;;6138131;23;20358;-88
2021/03/26 11:13:14;;;;;;;11.50;10.50;;;21.90;30.90;;;;;;6162437;23;20464;-88
2021/03/26 11:15:52;;;;;;;13.53;12.30;;;24.70;35.10;;;;;;6139511;23;20396;-88
2021/03/26 11:18:24;;;;;;;12.10;10.93;;;22.50;32.00;;;;;;6165421;23;20421;-88
2021/03/26 11:21:03;;;;;;;12.07;10.90;;;;;;;;;;6145080;23;20407;-90
2021/03/26 11:23:32;;;;;;;11.80;10.13;;;19.80;36.10;;;;;;6142719;23;20383;-88
2021/03/26 11:26:03;;;;;;;10.43;9.13;;;20.80;37.20;;;;;;6165765;23;20385;-88
2021/03/26 11:29:00;;;;;;;11.67;9.90;;;19.10;32.70;;;;;;6140643;23;20385;-87
2021/03/26 11:37:28;;;;;;;15.30;12.57;;;18.40;38.20;;;;;;6056839;23;20415;-88
2021/03/26 11:45:47;;;;;;;11.70;10.70;;;17.80;42.10;;;;;;6107592;22;20477;-89
2021/03/26 11:48:59;;;;;;;;;;;;;;;;;;;;;
2021/03/26 11:51:40;;;;;;;16.00;11.27;;;19.70;33.00;;;;;;6111478;23;20370;-85
2021/03/26 11:54:39;;;;;;;11.87;10.90;;;20.60;32.40;;;;;;6198809;23;20481;-85
2021/03/26 11:57:11;;;;;;;12.53;11.33;;;21.60;32.00;;;;;;6069029;23;20444;-87
2021/03/26 12:00:05;;;;;;;12.20;10.50;;;22.00;34.20;;;;;;6102199;23;20410;-88
2021/03/26 12:06:00;;;;;;;10.77;9.67;;;23.90;33.40;;;;;;6092166;23;20500;-88
2021/03/26 12:09:03;;;;;;;10.87;9.87;;;24.60;33.90;;;;;;6084620;23;20458;-87
2021/03/26 12:11:44;;;;;;;10.40;9.60;;;25.20;34.80;;;;;;6094410;23;20429;-86
2021/03/26 12:14:22;;;;;;;12.17;9.27;;;23.00;33.00;;;;;;6230396;22;20398;-86
2021/03/26 12:17:10;;;;;;;9.80;9.00;;;22.50;33.20;;;;;;6266971;22;20631;-87
2021/03/26 12:19:37;;;;;;;9.63;8.80;;;23.60;41.90;;;;;;6267772;23;20445;-87
2021/03/26 12:25:25;;;;;;;8.90;8.10;;;22.20;44.50;;;;;;6155600;22;20456;-89
2021/03/26 12:27:56;;;;;;;7.93;7.33;;;;;;;;;;6203504;22;20378;-87
2021/03/26 12:30:31;;;;;;;9.00;8.10;;;22.70;30.00;;;;;;6238236;22;20378;-88
2021/03/26 12:33:29;;;;;;;7.27;6.67;;;24.60;33.10;;;;;;6239296;22;20398;-86
2021/03/26 12:36:15;;;;;;;8.73;7.93;;;20.60;30.30;;;;;;6211136;22;20399;-87
2021/03/26 12:39:12;;;;;;;8.30;7.60;;;24.10;33.80;;;;;;6184881;23;20435;-87
2021/03/26 12:44:20;;;;;;;8.00;7.40;;;21.10;30.00;;;;;;6098490;23;20442;-87
2021/03/26 12:47:32;;;;;;;5.50;5.23;;;20.50;30.50;;;;;;6109355;23;20442;-85
2021/03/26 12:50:11;;;;;;;6.43;6.03;;;23.70;32.40;;;;;;6160246;22;20477;-84
2021/03/26 12:53:20;;;;;;;6.43;5.83;;;22.10;30.50;;;;;;6070361;22;20458;-86
2021/03/26 12:56:10;;;;;;;5.97;5.57;;;22.40;30.80;;;;;;6290523;22;20372;-89
2021/03/26 12:59:13;;;;;;;8.30;6.80;;;24.70;30.60;;;;;;6270757;22;20448;-88
2021/03/26 13:01:57;;;;;;;6.53;6.03;;;22.80;29.70;;;;;;6300889;22;20424;-87
2021/03/26 13:04:39;;;;;;;7.20;6.50;;;23.70;29.60;;;;;;6298041;22;20357;-88
2021/03/26 13:07:41;;;;;;;6.63;6.13;;;23.60;29.30;;;;;;6270570;22;20361;-90
2021/03/26 13:10:47;;;;;;;;;;;;;;;;;;;;;
2021/03/26 13:13:35;;;;;;;10.40;7.83;;;26.20;30.10;;;;;;6299064;22;20364;-89
2021/03/26 13:16:24;;;;;;;8.03;7.43;;;23.70;29.00;;;;;;6270228;22;20373;-85
2021/03/26 13:19:34;;;;;;;7.53;6.90;;;21.40;32.60;;;;;;6270130;22;20428;-90
2021/03/26 13:22:34;;;;;;;8.10;6.90;;;22.10;32.20;;;;;;6296432;22;20379;-88
2021/03/26 13:25:43;;;;;;;7.60;6.90;;;19.90;30.50;;;;;;6272748;22;20369;-87
2021/03/26 13:28:23;;;;;;;7.93;6.20;;;19.50;32.20;;;;;;6221830;22;609218;-86
2021/03/26 13:31:11;;;;;;;6.87;6.27;;;20.60;33.00;;;;;;6143951;23;20373;-86
2021/03/26 13:34:17;;;;;;;5.97;5.20;;;17.10;31.10;;;;;;6118996;23;20404;-87
2021/03/26 13:36:46;;;;;;;6.93;6.30;;;18.40;32.50;;;;;;6118024;23;20400;-87
2021/03/26 13:39:30;;;;;;;5.70;5.20;;;19.60;39.60;;;;;;6118340;23;20435;-86
2021/03/26 13:41:58;;;;;;;9.47;8.47;;;21.10;37.30;;;;;;6119489;22;20389;-87
2021/03/26 13:44:32;;;;;;;7.53;6.90;;;22.80;39.20;;;;;;6116717;23;20533;-87
2021/03/26 13:47:35;;;;;;;6.67;6.27;;;20.40;38.40;;;;;;6142560;23;20394;-88
2021/03/26 13:50:32;;;;;;;7.90;5.80;;;19.40;35.60;;;;;;6211682;22;20464;-88
2021/03/26 13:53:47;;;;;;;7.20;5.87;;;18.90;33.30;;;;;;6210595;23;20410;-86
2021/03/26 13:58:51;;;;;;;6.40;5.80;;;19.50;32.50;;;;;;6266915;22;20929;-89
2021/03/26 14:01:43;;;;;;;5.40;5.07;;;21.60;38.80;;;;;;6238812;23;20839;-87
2021/03/26 14:07:39;;;;;;;5.90;5.50;;;20.10;30.40;;;;;;6199648;22;22496;-90
2021/03/26 14:10:54;;;;;;;5.53;5.03;;;21.10;35.30;;;;;;6177290;23;20385;-88
2021/03/26 14:13:41;;;;;;;5.20;4.90;;;22.00;33.10;;;;;;6164464;23;20410;-90
2021/03/26 14:16:22;;;;;;;5.30;5.00;;;22.10;33.00;;;;;;6151761;23;20380;-87
2021/03/26 14:19:12;;;;;;;5.63;5.33;;;21.50;31.30;;;;;;6206285;23;20435;-89
2021/03/26 14:21:58;;;;;;;3.87;3.67;;;22.30;33.40;;;;;;6204758;23;20682;-85
2021/03/26 14:24:42;;;;;;;5.97;5.50;;;19.10;31.30;;;;;;6181464;23;20423;-88
2021/03/26 14:30:28;;;;;;;5.97;5.47;;;18.70;32.70;;;;;;6261319;22;20459;-89
2021/03/26 14:33:08;;;;;;;5.00;4.70;;;21.20;33.90;;;;;;6241542;22;20388;-87
2021/03/26 14:35:43;;;;;;;5.70;5.33;;;19.10;35.20;;;;;;6242212;22;20380;-85
2021/03/26 14:38:29;;;;;;;5.80;4.90;;;21.30;36.50;;;;;;6242186;22;20452;-89
2021/03/26 14:41:27;;;;;;;9.27;4.80;;;23.10;39.50;;;;;;6243054;22;20481;-89
2021/03/26 14:44:24;;;;;;;4.87;4.60;;;19.60;33.60;;;;;;6240566;22;20388;-88
2021/03/26 14:47:15;;;;;;;4.03;3.90;;;18.90;33.30;;;;;;6239803;23;20382;-88
2021/03/26 14:50:27;;;;;;;3.23;2.80;;;20.30;33.90;;;;;;6269503;22;20392;-88
2021/03/26 14:53:21;;;;;;;2.97;2.87;;;18.50;33.20;;;;;;6223869;23;20378;-89
2021/03/26 14:56:04;;;;;;;3.77;3.63;;;17.30;33.90;;;;;;6259149;23;20381;-89
2021/03/26 15:01:37;;;;;;;2.90;2.73;;;17.10;32.40;;;;;;6269424;22;20390;-87
2021/03/26 15:04:32;;;;;;;3.00;2.90;;;20.00;34.60;;;;;;6203877;23;20382;-86
2021/03/26 15:07:15;;;;;;;2.47;2.37;;;19.20;34.30;;;;;;6115190;23;20418;-89
2021/03/26 15:10:04;;;;;;;2.93;2.83;;;17.70;32.80;;;;;;6112271;23;20478;-88
2021/03/26 15:12:52;;;;;;;2.70;2.60;;;17.80;33.70;;;;;;6111769;23;20378;-87